Time;durP1;ratioP1;P1;durP2;ratioP2;P2;SDS_P1;SDS_P2;PMS_P1;PMS_P2;Temp;Humidity;BMP_temperature;BMP_pressure;BME280_temperature;BME280_humidity;BME280_pressure;Samples;Min_cycle;Max_cycle;Signal;HPM_P1;HPM_P2
2021/04/15 00:00:59;;;;;;;24.10;12.47;;;;;;;2.12;87.44;97024.03;4925396;28;20456;-94
2021/04/15 00:03:28;;;;;;;18.03;11.37;;;;;;;2.03;87.88;97018.88;4924672;28;20556;-91
2021/04/15 00:05:56;;;;;;;16.63;12.10;;;;;;;1.94;87.95;97016.31;4921324;28;20437;-90
2021/04/15 00:08:22;;;;;;;22.30;13.10;;;;;;;2.07;87.68;97016.72;4920706;28;20611;-90
2021/04/15 00:10:51;;;;;;;19.07;13.00;;;;;;;1.94;87.96;97020.94;4929108;28;20520;-87
2021/04/15 00:13:36;;;;;;;19.43;12.17;;;;;;;1.83;88.94;97018.13;4933409;28;20481;-87
2021/04/15 00:16:04;;;;;;;20.97;13.07;;;;;;;1.79;89.15;97005.00;4930878;29;20590;-87
2021/04/15 00:18:31;;;;;;;15.10;9.90;;;;;;;1.84;89.22;97011.59;4927575;28;20523;-87
2021/04/15 00:20:57;;;;;;;17.73;12.40;;;;;;;1.87;88.50;97006.09;4919676;28;20484;-88
2021/04/15 00:23:23;;;;;;;22.20;13.77;;;;;;;1.86;88.23;96999.31;4920243;28;20483;-88
2021/04/15 00:25:50;;;;;;;20.40;12.57;;;;;;;1.84;88.00;97001.69;4925051;28;20531;-87
2021/04/15 00:28:16;;;;;;;19.37;13.30;;;;;;;1.91;88.13;96997.91;4939001;28;20438;-87
2021/04/15 00:30:44;;;;;;;17.00;11.90;;;;;;;1.92;87.64;97002.75;4938975;28;20551;-88
2021/04/15 00:33:11;;;;;;;20.70;12.97;;;;;;;1.92;87.02;97002.00;4939023;29;20531;-87
2021/04/15 00:35:38;;;;;;;19.03;11.97;;;;;;;1.95;86.92;96993.84;4938744;29;20459;-87
2021/04/15 00:38:06;;;;;;;16.60;11.27;;;;;;;1.97;86.34;96988.06;4937843;28;20551;-87
2021/04/15 00:40:33;;;;;;;15.80;11.23;;;;;;;2.03;85.57;96986.19;4937938;28;21011;-87
2021/04/15 00:42:59;;;;;;;15.90;12.03;;;;;;;2.05;85.17;96987.19;4937939;28;20514;-87
2021/04/15 00:45:29;;;;;;;19.87;12.40;;;;;;;2.11;85.02;96984.56;4938613;28;20459;-87
2021/04/15 00:48:02;;;;;;;17.20;11.23;;;;;;;2.10;84.40;96981.19;4938212;28;20476;-86
2021/04/15 00:50:32;;;;;;;20.93;12.30;;;;;;;1.97;84.79;96982.75;4938061;29;20456;-86
2021/04/15 00:53:02;;;;;;;19.13;11.83;;;;;;;1.76;86.24;96975.94;4938023;28;20449;-86
2021/04/15 00:55:32;;;;;;;19.20;12.60;;;;;;;1.76;86.95;96983.94;4937859;29;20981;-85
2021/04/15 00:58:00;;;;;;;17.87;12.23;;;;;;;1.69;87.58;96979.75;4938171;28;20458;-86
2021/04/15 01:00:29;;;;;;;26.70;11.90;;;;;;;1.82;86.63;96988.13;4938157;28;20525;-85
2021/04/15 01:02:58;;;;;;;17.87;11.80;;;;;;;1.81;86.40;96981.34;4937314;28;21036;-85
2021/04/15 01:05:28;;;;;;;14.70;11.03;;;;;;;1.70;87.39;96975.16;4938041;28;20451;-85
2021/04/15 01:07:54;;;;;;;18.30;13.13;;;;;;;1.60;87.90;96974.53;4937714;29;20501;-85
2021/04/15 01:10:23;;;;;;;21.93;13.07;;;;;;;1.62;88.04;96972.16;4937885;28;20650;-85
2021/04/15 01:13:13;;;;;;;20.37;12.57;;;;;;;1.61;88.42;96976.00;4938185;28;20807;-85
2021/04/15 01:15:52;;;;;;;18.37;12.80;;;;;;;1.66;87.51;96964.72;4938311;29;20511;-85
2021/04/15 01:18:24;;;;;;;19.20;11.77;;;;;;;1.64;87.19;96969.75;4937862;28;20440;-85
2021/04/15 01:21:10;;;;;;;19.43;13.80;;;;;;;1.61;87.86;96966.13;4937515;29;20432;-85
2021/04/15 01:23:41;;;;;;;19.07;12.97;;;;;;;1.66;88.01;96964.72;4938047;29;20456;-86
2021/04/15 01:26:40;;;;;;;20.73;13.20;;;;;;;1.55;87.80;96967.97;4939108;29;20535;-87
2021/04/15 01:29:14;;;;;;;20.43;14.13;;;;;;;1.49;88.29;96964.53;4938740;29;20524;-86
2021/04/15 01:31:57;;;;;;;20.30;12.50;;;;;;;1.39;88.61;96968.50;4937880;29;20500;-86
2021/04/15 01:34:31;;;;;;;15.23;11.63;;;;;;;1.41;88.76;96966.09;4937332;29;20471;-85
2021/04/15 01:37:02;;;;;;;20.80;12.60;;;;;;;1.42;88.54;96964.91;4937467;28;20469;-86
2021/04/15 01:39:33;;;;;;;17.70;11.83;;;;;;;1.39;87.84;96962.44;4937344;29;20555;-86
2021/04/15 01:42:05;;;;;;;19.23;12.90;;;;;;;1.37;88.14;96962.19;4937406;29;20531;-86
2021/04/15 01:44:38;;;;;;;19.60;11.80;;;;;;;1.41;88.37;96958.13;4937506;29;20760;-86
2021/04/15 01:47:12;;;;;;;20.00;12.13;;;;;;;1.34;88.29;96950.53;4937379;29;20945;-85
2021/04/15 01:49:43;;;;;;;20.77;12.53;;;;;;;1.30;88.08;96960.63;4937109;29;20513;-85
2021/04/15 01:52:13;;;;;;;17.63;11.30;;;;;;;1.26;88.25;96954.78;4937259;28;20485;-86
2021/04/15 01:54:44;;;;;;;15.00;10.77;;;;;;;1.41;87.48;96957.41;4937867;28;21003;-85
2021/04/15 01:57:16;;;;;;;21.00;13.07;;;;;;;1.56;86.77;96958.06;4937028;29;20539;-85
2021/04/15 01:59:46;;;;;;;15.70;11.50;;;;;;;1.55;86.46;96956.59;4936930;29;20590;-86
2021/04/15 02:02:16;;;;;;;20.13;12.47;;;;;;;1.52;86.48;96960.19;4936895;29;20561;-87
2021/04/15 02:04:47;;;;;;;16.67;10.70;;;;;;;1.62;86.41;96948.25;4937120;28;20524;-88
2021/04/15 02:07:17;;;;;;;13.03;9.57;;;;;;;1.61;86.34;96955.47;4937688;29;20440;-88
2021/04/15 02:09:46;;;;;;;15.80;9.87;;;;;;;1.66;85.79;96954.06;4937875;29;20491;-88
2021/04/15 02:12:16;;;;;;;14.50;10.90;;;;;;;1.59;85.92;96955.22;4937250;28;20440;-87
2021/04/15 02:14:47;;;;;;;15.67;10.37;;;;;;;1.42;86.85;96956.94;4937762;28;20602;-88
2021/04/15 02:17:15;;;;;;;14.93;11.40;;;;;;;1.31;87.83;96970.09;4937354;29;20439;-87
2021/04/15 02:19:45;;;;;;;22.83;12.57;;;;;;;1.17;88.56;96968.19;4937410;28;20578;-88
2021/04/15 02:22:19;;;;;;;20.50;13.00;;;;;;;1.17;89.24;96962.13;4937849;28;20504;-87
2021/04/15 02:24:54;;;;;;;24.87;15.60;;;;;;;1.00;90.78;96964.56;4937230;28;20448;-88
2021/04/15 02:27:24;;;;;;;27.60;16.90;;;;;;;0.86;91.64;96968.69;4936389;28;20454;-86
2021/04/15 02:29:54;;;;;;;28.80;18.90;;;;;;;0.92;91.74;96964.19;4937052;28;20458;-87
2021/04/15 02:32:27;;;;;;;23.30;16.87;;;;;;;0.88;92.15;96966.31;4936906;28;20462;-88
2021/04/15 02:34:58;;;;;;;31.37;19.33;;;;;;;1.03;91.69;96967.00;4957030;28;20432;-85
2021/04/15 02:37:29;;;;;;;25.30;16.67;;;;;;;0.93;91.73;96970.25;4957132;28;20460;-86
2021/04/15 02:40:00;;;;;;;29.43;16.40;;;;;;;0.97;91.81;96970.81;4951130;28;20507;-86
2021/04/15 02:42:29;;;;;;;24.80;16.43;;;;;;;0.83;92.36;96972.28;4936217;29;20460;-85
2021/04/15 02:45:01;;;;;;;24.03;16.83;;;;;;;0.71;93.12;96969.91;4936890;28;20566;-84
2021/04/15 02:47:34;;;;;;;24.20;16.50;;;;;;;0.66;93.35;96968.59;4937404;28;20444;-87
2021/04/15 02:50:02;;;;;;;26.13;17.73;;;;;;;0.63;93.89;96969.53;4938047;28;20515;-88
2021/04/15 02:52:33;;;;;;;27.30;18.70;;;;;;;0.59;93.97;96971.66;4937034;28;20597;-88
2021/04/15 02:55:04;;;;;;;26.73;17.10;;;;;;;0.49;94.23;96968.34;4937294;28;20478;-88
2021/04/15 02:57:35;;;;;;;29.80;17.07;;;;;;;0.61;93.68;96955.25;4937268;29;20440;-85
2021/04/15 03:00:08;;;;;;;25.10;15.07;;;;;;;0.65;92.76;96964.50;4936145;29;21082;-83
2021/04/15 03:02:36;;;;;;;25.47;14.77;;;;;;;0.79;91.96;96955.06;4936155;29;20509;-83
2021/04/15 03:05:09;;;;;;;26.57;15.93;;;;;;;0.70;91.73;96960.47;4941233;28;20471;-83
2021/04/15 03:07:40;;;;;;;25.00;16.33;;;;;;;0.59;91.44;96955.72;4944846;28;20468;-84
2021/04/15 03:10:11;;;;;;;24.73;14.13;;;;;;;0.58;91.86;96958.81;4944452;29;20432;-83
2021/04/15 03:12:41;;;;;;;23.93;15.07;;;;;;;0.53;91.65;96954.91;4943401;29;20523;-84
2021/04/15 03:15:12;;;;;;;19.27;12.40;;;;;;;0.50;91.25;96956.53;4936535;28;20448;-84
2021/04/15 03:17:41;;;;;;;17.17;12.70;;;;;;;0.52;91.64;96959.47;4936284;29;20490;-85
2021/04/15 03:20:14;;;;;;;17.97;12.43;;;;;;;0.43;91.92;96961.50;4936800;28;20484;-85
2021/04/15 03:22:47;;;;;;;19.17;13.20;;;;;;;0.49;91.80;96954.34;4936153;29;20602;-86
2021/04/15 03:25:14;;;;;;;23.10;13.27;;;;;;;0.59;91.24;96961.03;4936797;28;20442;-85
2021/04/15 03:27:45;;;;;;;22.80;14.83;;;;;;;0.45;91.77;96965.16;4936133;28;20447;-87
2021/04/15 03:30:15;;;;;;;20.83;11.53;;;;;;;0.32;92.20;96955.97;4936726;29;20432;-88
2021/04/15 03:32:47;;;;;;;23.80;12.97;;;;;;;0.25;92.92;96957.06;4939558;28;20873;-86
2021/04/15 03:35:17;;;;;;;21.63;13.67;;;;;;;0.29;93.30;96964.84;4939769;29;20431;-87
2021/04/15 03:37:53;;;;;;;25.77;14.57;;;;;;;0.31;93.30;96965.16;4939812;28;20474;-86
2021/04/15 03:40:24;;;;;;;23.47;14.53;;;;;;;0.24;93.48;96968.88;4939466;29;20518;-88
2021/04/15 03:42:54;;;;;;;24.00;12.47;;;;;;;0.25;93.67;96967.69;4939607;29;20447;-88
2021/04/15 03:45:27;;;;;;;22.50;15.10;;;;;;;0.25;93.92;96965.03;4940005;28;20540;-84
2021/04/15 03:47:57;;;;;;;25.03;14.60;;;;;;;0.21;94.12;96967.16;4939669;28;20444;-85
2021/04/15 03:50:28;;;;;;;23.30;14.13;;;;;;;0.18;95.02;96967.31;4939374;28;20439;-85
2021/04/15 03:52:58;;;;;;;21.63;14.60;;;;;;;0.13;95.11;96959.97;4939367;29;20975;-85
2021/04/15 03:55:30;;;;;;;20.33;13.70;;;;;;;0.18;94.80;96962.00;4939713;28;20458;-85
2021/04/15 03:58:02;;;;;;;25.33;13.30;;;;;;;-0.04;95.68;96963.09;4938753;29;20443;-86
2021/04/15 04:00:33;;;;;;;24.20;15.43;;;;;;;0.03;96.29;96958.63;4938641;28;20996;-85
2021/04/15 04:03:04;;;;;;;19.77;13.77;;;;;;;0.03;96.63;96963.91;4939691;28;20456;-86
2021/04/15 04:05:36;;;;;;;32.57;15.83;;;;;;;-0.16;96.61;96961.38;4938941;29;20457;-86
2021/04/15 04:08:08;;;;;;;26.90;16.13;;;;;;;-0.19;97.69;96967.59;4939540;28;20448;-86
2021/04/15 04:10:38;;;;;;;25.67;15.63;;;;;;;-0.22;97.78;96959.84;4940086;29;20432;-86
2021/04/15 04:13:21;;;;;;;21.33;13.70;;;;;;;-0.13;97.48;96968.47;4938922;28;20530;-86
2021/04/15 04:15:53;;;;;;;24.13;16.67;;;;;;;-0.11;97.05;96963.44;4939709;28;20495;-85
2021/04/15 04:18:26;;;;;;;23.10;14.90;;;;;;;-0.12;97.07;96967.25;4938975;28;20973;-85
2021/04/15 04:20:55;;;;;;;19.90;13.90;;;;;;;-0.05;96.50;96964.25;4939474;29;20563;-85
2021/04/15 04:23:34;;;;;;;32.07;15.20;;;;;;;0.03;96.08;96969.22;4939176;28;21075;-85
2021/04/15 04:26:10;;;;;;;20.87;13.57;;;;;;;0.07;95.65;96970.50;4939526;29;20589;-85
2021/04/15 04:28:41;;;;;;;29.40;14.47;;;;;;;0.00;95.59;96960.97;4939641;29;20434;-85
2021/04/15 04:31:16;;;;;;;24.00;14.47;;;;;;;-0.04;95.86;96968.38;4940029;29;20455;-85
2021/04/15 04:33:45;;;;;;;18.50;13.13;;;;;;;-0.05;95.38;96964.25;4939570;28;20477;-87
2021/04/15 04:36:14;;;;;;;22.73;15.10;;;;;;;0.07;94.93;96970.50;4939906;28;20540;-87
2021/04/15 04:38:40;;;;;;;26.63;15.73;;;;;;;0.04;95.03;96966.09;4939788;28;20964;-85
2021/04/15 04:41:11;;;;;;;24.90;15.80;;;;;;;-0.04;95.49;96973.69;4939776;28;20563;-85
2021/04/15 04:43:43;;;;;;;21.17;14.10;;;;;;;0.02;95.20;96981.00;4938504;28;20472;-85
2021/04/15 04:46:15;;;;;;;19.70;13.43;;;;;;;-0.02;95.43;96984.56;4939205;28;20448;-84
2021/04/15 04:48:50;;;;;;;20.50;13.00;;;;;;;0.07;95.29;96980.38;4939164;28;20462;-85
2021/04/15 04:51:19;;;;;;;22.70;14.00;;;;;;;0.06;95.27;96981.56;4939101;29;20493;-86
2021/04/15 04:53:48;;;;;;;21.77;13.17;;;;;;;0.17;94.76;96992.38;4939127;28;20559;-86
2021/04/15 04:56:25;;;;;;;24.87;13.77;;;;;;;0.62;94.30;96986.66;4938991;28;20479;-86
2021/04/15 04:58:53;;;;;;;19.53;12.60;;;;;;;0.89;91.91;96997.00;4939951;28;20460;-85
2021/04/15 05:01:21;;;;;;;17.43;12.10;;;;;;;1.13;90.19;97001.47;4939772;28;20455;-85
2021/04/15 05:03:47;;;;;;;21.20;11.77;;;;;;;1.12;89.22;96998.06;4939424;28;20547;-85
2021/04/15 05:06:21;;;;;;;17.27;10.63;;;;;;;1.67;86.80;96995.44;4940148;28;20444;-85
2021/04/15 05:08:55;;;;;;;17.70;10.40;;;;;;;1.65;86.85;96997.09;4939575;29;20432;-86
2021/04/15 05:11:22;;;;;;;14.07;10.03;;;;;;;1.90;85.52;97001.75;4938975;29;20917;-86
2021/04/15 05:13:49;;;;;;;13.93;9.10;;;;;;;1.63;84.74;96997.53;4938482;28;20495;-86
2021/04/15 05:16:16;;;;;;;14.37;9.40;;;;;;;1.60;84.46;96993.91;4938888;28;20535;-85
2021/04/15 05:18:43;;;;;;;14.30;9.80;;;;;;;1.58;84.80;97001.63;4937337;28;20460;-85
2021/04/15 05:21:14;;;;;;;15.33;8.93;;;;;;;1.34;85.45;97000.31;4939140;28;20491;-84
2021/04/15 05:23:45;;;;;;;14.00;9.53;;;;;;;1.13;87.03;97002.16;4937983;29;21035;-84
2021/04/15 05:26:15;;;;;;;23.00;8.93;;;;;;;1.30;86.15;97000.50;4938581;28;20442;-85
2021/04/15 05:28:43;;;;;;;13.30;8.90;;;;;;;1.69;85.14;97006.34;4939388;29;20534;-84
2021/04/15 05:31:12;;;;;;;16.50;8.87;;;;;;;2.19;82.91;97011.53;4938382;28;20452;-85
2021/04/15 05:33:39;;;;;;;9.57;7.40;;;;;;;2.64;80.06;97022.16;4938573;28;20472;-85
2021/04/15 05:36:13;;;;;;;14.00;6.87;;;;;;;2.88;78.53;97018.50;4938732;28;20933;-85
2021/04/15 05:38:44;;;;;;;12.33;7.07;;;;;;;3.12;77.18;97021.59;4939461;28;20523;-86
2021/04/15 05:41:20;;;;;;;7.70;6.10;;;;;;;2.85;77.44;97022.81;4939089;29;20496;-87
2021/04/15 05:43:49;;;;;;;11.83;8.00;;;;;;;2.20;79.78;97023.63;4939443;28;20486;-86
2021/04/15 05:46:19;;;;;;;15.30;7.60;;;;;;;1.88;81.21;97022.78;4940148;28;20957;-86
2021/04/15 05:48:47;;;;;;;11.20;7.57;;;;;;;1.85;81.94;97015.75;4940390;29;20428;-90
2021/04/15 05:51:19;;;;;;;8.80;6.97;;;;;;;2.59;80.31;97030.09;4941791;28;20483;-90
2021/04/15 05:53:48;;;;;;;11.00;7.20;;;;;;;2.72;77.89;97029.72;4942339;28;20569;-90
2021/04/15 05:56:19;;;;;;;9.10;6.27;;;;;;;2.90;78.73;97032.81;4960967;28;20447;-85
2021/04/15 05:58:55;;;;;;;12.07;7.10;;;;;;;3.75;74.95;97025.63;4999944;28;20467;-87
2021/04/15 06:01:29;;;;;;;9.70;6.53;;;;;;;3.83;73.75;97028.56;4940148;29;20478;-85
2021/04/15 06:04:02;;;;;;;10.57;7.10;;;;;;;3.80;72.76;97029.53;4940360;28;20490;-85
2021/04/15 06:06:32;;;;;;;14.23;6.70;;;;;;;3.55;73.07;97023.09;4941829;29;20527;-86
2021/04/15 06:09:03;;;;;;;10.57;6.33;;;;;;;3.11;74.92;97028.13;4941855;28;20906;-86
2021/04/15 06:11:45;;;;;;;14.73;6.73;;;;;;;2.91;75.89;97023.63;4939770;29;20785;-85
2021/04/15 06:14:20;;;;;;;11.00;6.70;;;;;;;2.97;76.16;97024.38;4945413;28;20467;-85
2021/04/15 06:16:49;;;;;;;9.07;7.07;;;;;;;3.47;73.96;97026.69;4952181;29;20466;-85
2021/04/15 06:19:19;;;;;;;9.50;6.20;;;;;;;4.10;74.04;97027.25;4950390;28;20504;-87
2021/04/15 06:21:48;;;;;;;8.13;5.93;;;;;;;4.98;70.10;97031.31;4950923;28;20454;-86
2021/04/15 06:24:18;;;;;;;15.67;6.27;;;;;;;5.71;66.32;97041.47;4939319;28;20820;-85
2021/04/15 06:26:46;;;;;;;11.40;5.90;;;;;;;6.10;64.29;97044.06;4939006;28;20455;-87
2021/04/15 06:29:23;;;;;;;10.03;5.80;;;;;;;6.52;62.11;97044.84;4938276;28;20479;-86
2021/04/15 06:31:52;;;;;;;10.83;5.27;;;;;;;6.62;60.52;97040.66;4938617;29;20500;-87
2021/04/15 06:34:19;;;;;;;8.50;5.27;;;;;;;5.87;62.08;97050.72;4937940;28;20470;-87
2021/04/15 06:36:52;;;;;;;12.13;5.97;;;;;;;5.63;63.90;97056.59;4938663;28;20542;-86
2021/04/15 06:39:26;;;;;;;10.80;6.30;;;;;;;5.03;66.22;97047.38;4940111;29;20492;-87
2021/04/15 06:42:42;;;;;;;12.87;6.17;;;;;;;5.86;64.00;97057.28;4940167;29;20391;-85
2021/04/15 06:45:27;;;;;;;7.63;5.10;;;;;;;5.89;62.99;97058.97;4861576;29;20437;-87
2021/04/15 06:48:18;;;;;;;7.40;6.20;;;;;;;6.26;61.49;97058.63;4862038;29;20412;-85
2021/04/15 06:50:59;;;;;;;7.27;4.87;;;;;;;6.68;60.48;97058.16;4918872;28;20426;-86
2021/04/15 06:53:36;;;;;;;6.73;5.63;;;;;;;7.11;59.13;97061.03;4939884;29;20514;-86
2021/04/15 06:56:19;;;;;;;8.87;5.60;;;;;;;7.41;57.93;97061.81;4939197;28;20442;-87
2021/04/15 06:58:58;;;;;;;10.13;5.00;;;;;;;7.95;55.48;97061.03;4938499;28;20417;-85
2021/04/15 07:01:50;;;;;;;9.87;4.73;;;;;;;8.09;54.40;97066.00;4938331;29;20474;-86
2021/04/15 07:04:19;;;;;;;6.00;5.40;;;;;;;8.06;54.69;97068.97;4939512;28;20462;-86
2021/04/15 07:06:50;;;;;;;11.13;6.07;;;;;;;8.04;54.27;97069.50;4941142;28;20452;-86
2021/04/15 07:09:42;;;;;;;7.30;5.20;;;;;;;8.25;53.93;97066.31;4941795;29;20595;-86
2021/04/15 07:12:48;;;;;;;6.63;5.50;;;;;;;7.50;54.91;97060.75;4940628;28;21006;-86
2021/04/15 07:15:37;;;;;;;5.93;4.90;;;;;;;8.56;52.91;97060.34;4970290;28;20498;-86
2021/04/15 07:18:15;;;;;;;9.83;5.27;;;;;;;8.49;52.74;97066.28;4941641;29;20524;-84
2021/04/15 07:20:53;;;;;;;10.97;5.93;;;;;;;8.71;52.54;97062.63;4941774;29;20468;-87
2021/04/15 07:24:04;;;;;;;12.67;5.73;;;;;;;7.58;53.33;97063.63;4941890;28;20438;-86
2021/04/15 07:26:58;;;;;;;9.10;4.30;;;;;;;7.27;54.40;97052.13;4940997;28;20939;-86
2021/04/15 07:30:05;;;;;;;5.80;5.20;;;;;;;7.28;55.60;97067.03;4940892;29;20424;-87
2021/04/15 07:32:49;;;;;;;8.23;4.93;;;;;;;7.03;55.54;97062.81;4943415;29;20473;-85
2021/04/15 07:35:27;;;;;;;9.20;5.50;;;;;;;7.45;54.95;97069.59;4941396;28;20507;-86
2021/04/15 07:38:26;;;;;;;7.20;5.43;;;;;;;7.97;54.60;97072.00;4942496;28;20519;-86
2021/04/15 07:41:18;;;;;;;13.33;5.17;;;;;;;8.14;53.07;97072.56;4942933;28;20438;-86
2021/04/15 07:44:18;;;;;;;7.90;5.40;;;;;;;8.06;53.46;97079.72;4952285;29;20449;-85
2021/04/15 07:46:56;;;;;;;8.00;5.33;;;;;;;8.29;53.34;97072.19;4949088;28;20455;-85
2021/04/15 07:49:58;;;;;;;8.77;5.87;;;;;;;8.45;51.83;97079.31;4943042;28;20423;-85
2021/04/15 07:52:51;;;;;;;5.90;5.20;;;;;;;8.22;52.56;97086.16;4945153;28;20475;-84
2021/04/15 07:55:37;;;;;;;8.07;5.30;;;;;;;8.16;52.62;97086.22;4995408;28;20430;-89
2021/04/15 07:58:22;;;;;;;9.33;5.27;;;;;;;8.31;53.06;97083.88;4974831;28;20908;-85
2021/04/15 08:01:12;;;;;;;6.13;4.70;;;;;;;8.25;52.88;97085.88;4952211;28;20589;-84
2021/04/15 08:04:05;;;;;;;9.50;5.63;;;;;;;8.17;52.26;97095.75;4944224;28;20497;-83
2021/04/15 08:06:50;;;;;;;8.23;6.20;;;;;;;8.65;51.56;97091.53;4923877;28;20767;-84
2021/04/15 08:09:53;;;;;;;7.93;5.50;;;;;;;8.12;52.79;97093.09;4921289;29;20478;-85
2021/04/15 08:12:34;;;;;;;12.40;6.33;;;;;;;8.16;52.19;97099.66;4922823;28;20481;-86
2021/04/15 08:15:25;;;;;;;9.77;5.90;;;;;;;7.55;54.43;97086.81;4960681;28;20487;-85
2021/04/15 08:18:05;;;;;;;11.73;6.30;;;;;;;7.34;55.50;97086.50;4959213;28;20975;-85
2021/04/15 08:20:50;;;;;;;8.17;5.43;;;;;;;6.93;55.33;97094.59;4958580;29;20449;-85
2021/04/15 08:23:37;;;;;;;9.20;6.13;;;;;;;6.68;57.16;97090.34;4959299;28;20525;-85
2021/04/15 08:26:26;;;;;;;11.20;6.10;;;;;;;7.32;56.01;97083.59;4959788;29;20569;-84
2021/04/15 08:29:38;;;;;;;7.80;6.50;;;;;;;7.42;55.33;97098.13;4959544;29;20410;-84
2021/04/15 08:32:20;;;;;;;11.80;7.20;;;;;;;6.75;57.71;97089.09;4918119;29;20515;-84
2021/04/15 08:34:56;;;;;;;15.73;7.40;;;;;;;6.98;57.98;97082.38;4919333;29;20598;-85
2021/04/15 08:37:34;;;;;;;12.70;6.43;;;;;;;6.69;56.37;97097.16;4920253;28;20849;-85
2021/04/15 08:40:14;;;;;;;13.93;6.13;;;;;;;6.29;57.85;97093.19;4934315;28;20510;-87
2021/04/15 08:42:52;;;;;;;10.80;6.20;;;;;;;5.98;58.85;97088.19;4938741;28;20488;-89
2021/04/15 08:45:34;;;;;;;10.33;6.47;;;;;;;6.20;58.06;97088.09;4939283;28;20399;-88
2021/04/15 08:48:15;;;;;;;8.47;5.37;;;;;;;6.24;58.11;97079.81;4920403;29;20520;-84
2021/04/15 08:50:52;;;;;;;11.40;6.50;;;;;;;6.40;57.98;97087.06;4920138;29;20482;-84
2021/04/15 08:53:51;;;;;;;8.60;6.13;;;;;;;6.44;56.47;97090.22;4921067;29;20431;-83
2021/04/15 08:56:23;;;;;;;6.40;5.47;;;;;;;6.25;58.14;97082.00;4923050;29;20453;-84
2021/04/15 08:59:03;;;;;;;12.33;6.03;;;;;;;6.25;57.58;97084.69;4920847;29;20934;-84
2021/04/15 09:01:44;;;;;;;7.97;5.60;;;;;;;6.02;56.58;97083.28;4919284;29;20477;-83
2021/04/15 09:04:16;;;;;;;9.10;5.60;;;;;;;6.23;56.76;97084.47;4930854;29;20547;-84
2021/04/15 09:06:50;;;;;;;7.40;6.17;;;;;;;6.40;57.68;97076.34;4958731;29;20937;-83
2021/04/15 09:09:25;;;;;;;11.23;5.10;;;;;;;6.47;56.91;97079.25;4958936;29;20442;-85
2021/04/15 09:12:17;;;;;;;6.80;4.70;;;;;;;6.47;56.17;97086.53;4957444;29;20478;-84
2021/04/15 09:15:00;;;;;;;17.20;5.33;;;;;;;6.29;56.64;97079.81;4959749;28;20521;-84
2021/04/15 09:17:33;;;;;;;9.83;5.63;;;;;;;6.44;55.32;97090.22;4969409;28;20458;-84
2021/04/15 09:20:09;;;;;;;7.27;5.10;;;;;;;6.36;55.58;97073.91;4970916;29;20482;-84
2021/04/15 09:22:55;;;;;;;6.00;4.50;;;;;;;6.64;54.87;97073.06;4971613;28;20469;-83
2021/04/15 09:25:33;;;;;;;6.67;4.60;;;;;;;6.19;54.90;97072.53;4963886;29;20543;-85
2021/04/15 09:28:08;;;;;;;7.27;4.27;;;;;;;6.37;56.16;97080.75;4959203;29;20431;-84
2021/04/15 09:31:07;;;;;;;10.20;6.03;;;;;;;6.56;55.46;97083.56;4959497;29;20423;-85
2021/04/15 09:34:13;;;;;;;9.03;4.70;;;;;;;6.35;52.83;97080.50;4950986;28;20528;-83
2021/04/15 09:36:58;;;;;;;11.33;4.00;;;;;;;6.50;53.67;97080.19;4958703;29;20455;-86
2021/04/15 09:39:45;;;;;;;9.57;6.10;;;;;;;6.69;54.72;97062.31;4958505;29;20435;-85
2021/04/15 09:42:39;;;;;;;11.23;5.83;;;;;;;6.92;55.52;97076.31;4958611;28;20431;-85
2021/04/15 09:45:24;;;;;;;10.80;5.13;;;;;;;6.64;53.40;97068.41;4958363;29;20479;-85
2021/04/15 09:47:59;;;;;;;5.70;4.20;;;;;;;6.62;53.84;97070.88;4957437;29;20412;-85
2021/04/15 09:50:30;;;;;;;9.10;5.00;;;;;;;6.81;53.07;97077.09;4957139;28;20903;-85
2021/04/15 09:53:12;;;;;;;5.87;4.03;;;;;;;6.91;51.25;97074.84;4956927;28;20426;-85
2021/04/15 09:56:10;;;;;;;6.33;5.00;;;;;;;7.06;52.23;97061.81;4960177;29;20492;-84
2021/04/15 09:58:43;;;;;;;8.90;4.73;;;;;;;7.06;51.58;97063.78;4958966;28;20903;-85
2021/04/15 10:01:16;;;;;;;7.17;5.20;;;;;;;7.52;50.38;97061.69;4959409;29;20500;-85
2021/04/15 10:03:51;;;;;;;5.47;3.87;;;;;;;7.46;49.99;97062.97;4956305;28;20494;-84
2021/04/15 10:06:24;;;;;;;4.93;3.27;;;;;;;7.34;48.51;97048.91;4939483;28;20436;-85
2021/04/15 10:09:21;;;;;;;7.97;3.90;;;;;;;7.45;49.67;97064.22;4939105;29;20495;-84
2021/04/15 10:12:02;;;;;;;7.80;3.97;;;;;;;7.28;48.64;97055.56;4939555;28;20426;-85
2021/04/15 10:14:39;;;;;;;4.47;2.73;;;;;;;6.81;48.53;97054.91;4938875;28;20458;-85
2021/04/15 10:17:18;;;;;;;4.90;3.57;;;;;;;7.09;48.79;97050.09;4939377;29;20416;-84
2021/04/15 10:19:59;;;;;;;5.87;3.17;;;;;;;6.97;50.35;97054.09;4939660;29;21041;-85
2021/04/15 10:22:37;;;;;;;5.70;3.47;;;;;;;7.02;50.14;97049.91;4938218;29;20499;-84
2021/04/15 10:25:09;;;;;;;7.57;3.60;;;;;;;7.19;50.00;97048.56;4938780;29;20879;-85
2021/04/15 10:28:13;;;;;;;5.03;3.50;;;;;;;7.05;49.15;97041.56;4938312;29;20430;-87
2021/04/15 10:31:06;;;;;;;11.63;4.53;;;;;;;6.92;52.73;97047.53;4983650;28;20430;-88
2021/04/15 10:34:12;;;;;;;7.07;4.33;;;;;;;6.62;55.74;97059.41;4938573;28;20443;-86
2021/04/15 10:36:52;;;;;;;5.60;4.00;;;;;;;6.76;55.54;97050.31;4945743;28;20984;-87
2021/04/15 10:39:40;;;;;;;8.00;5.17;;;;;;;6.68;56.67;97042.06;4937455;28;20493;-87
2021/04/15 10:42:46;;;;;;;6.57;4.83;;;;;;;6.76;56.25;97037.66;4941644;29;20451;-87
2021/04/15 10:45:30;;;;;;;8.63;4.20;;;;;;;6.87;56.23;97039.50;4939748;29;20501;-87
2021/04/15 10:48:24;;;;;;;10.90;4.43;;;;;;;6.96;55.82;97056.03;4942412;29;20503;-87
2021/04/15 10:50:57;;;;;;;14.30;4.90;;;;;;;6.50;57.83;97052.66;4940886;28;20467;-86
2021/04/15 10:53:46;;;;;;;7.00;5.30;;;;;;;6.65;57.40;97048.44;4940879;28;20505;-87
2021/04/15 10:56:32;;;;;;;9.33;4.90;;;;;;;6.75;56.04;97052.28;4940333;28;20439;-87
2021/04/15 10:59:08;;;;;;;6.30;4.50;;;;;;;7.11;54.40;97044.94;4940711;29;20443;-86
2021/04/15 11:01:37;;;;;;;7.83;4.63;;;;;;;7.41;52.61;97036.91;4941448;29;20452;-86
2021/04/15 11:04:23;;;;;;;6.20;4.40;;;;;;;7.83;51.92;97028.19;4945489;28;20953;-87
2021/04/15 11:06:52;;;;;;;7.47;4.73;;;;;;;7.67;51.41;97031.06;4960501;28;20435;-87
2021/04/15 11:09:23;;;;;;;6.30;4.10;;;;;;;7.35;50.35;97036.22;4952553;29;20479;-88
2021/04/15 11:11:56;;;;;;;11.40;5.20;;;;;;;7.47;50.99;97030.25;4941049;29;20436;-87
2021/04/15 11:14:24;;;;;;;9.97;4.60;;;;;;;7.52;51.46;97023.38;4940901;28;20476;-87
2021/04/15 11:16:54;;;;;;;5.67;4.90;;;;;;;7.74;50.38;97017.78;4941490;28;20538;-88
2021/04/15 11:19:26;;;;;;;6.73;3.90;;;;;;;7.53;51.95;97022.88;4941975;29;20482;-85
2021/04/15 11:21:54;;;;;;;9.40;5.17;;;;;;;7.41;52.62;97026.16;4945239;28;20452;-84
2021/04/15 11:24:27;;;;;;;6.57;4.23;;;;;;;6.60;52.81;97027.00;4958444;28;20472;-85
2021/04/15 11:26:55;;;;;;;8.00;4.80;;;;;;;6.66;53.37;97023.09;4958439;28;20420;-88
2021/04/15 11:29:25;;;;;;;9.30;4.47;;;;;;;6.68;54.33;97015.25;4946515;28;20425;-87
2021/04/15 11:31:53;;;;;;;5.90;4.03;;;;;;;6.60;54.40;97014.34;4943531;28;20475;-88
2021/04/15 11:34:23;;;;;;;4.43;4.03;;;;;;;6.91;53.57;97023.88;4943569;28;20487;-89
2021/04/15 11:37:06;;;;;;;4.77;3.73;;;;;;;7.30;52.59;97010.19;4945800;28;20442;-89
2021/04/15 11:39:36;;;;;;;8.13;4.40;;;;;;;7.69;51.92;97007.09;4946625;28;20405;-89
2021/04/15 11:42:06;;;;;;;4.03;3.47;;;;;;;7.70;51.61;97006.59;4944088;29;20545;-88
2021/04/15 11:44:36;;;;;;;6.53;4.00;;;;;;;7.92;50.98;97013.69;4947330;28;20525;-89
2021/04/15 11:47:07;;;;;;;3.83;3.37;;;;;;;7.36;50.70;97024.28;4946359;28;20460;-88
2021/04/15 11:49:37;;;;;;;5.03;2.90;;;;;;;7.20;51.99;97017.81;4944669;29;20407;-89
2021/04/15 11:52:16;;;;;;;5.43;3.97;;;;;;;7.36;52.86;97006.19;4943826;28;20431;-88
2021/04/15 11:54:45;;;;;;;8.57;4.20;;;;;;;7.50;52.79;97021.19;4944493;29;20512;-88
2021/04/15 11:57:30;;;;;;;7.20;4.60;;;;;;;7.03;51.40;97017.22;4943433;28;20498;-89
2021/04/15 12:00:14;;;;;;;4.57;3.50;;;;;;;6.85;52.80;97015.16;4944788;29;20466;-87
2021/04/15 12:02:45;;;;;;;5.63;3.70;;;;;;;6.56;53.42;97008.50;4943748;28;20467;-88
2021/04/15 12:05:15;;;;;;;4.80;3.60;;;;;;;6.61;49.76;97009.72;4943663;29;20472;-87
2021/04/15 12:07:44;;;;;;;5.13;3.60;;;;;;;7.03;50.69;97016.47;4942497;28;20931;-87
2021/04/15 12:10:13;;;;;;;6.83;3.60;;;;;;;7.21;49.08;97010.47;4941236;28;20444;-88
2021/04/15 12:12:43;;;;;;;7.33;4.50;;;;;;;7.01;50.46;97017.00;4941927;28;20491;-87